sensor_id;sensor_type;location;lat;lon;timestamp;P1;durP1;ratioP1;P2;durP2;ratioP2
43807;SDS011;29438;50.664;10.098;2023-04-24T00:02:13;1.80;;;0.63;;
43807;SDS011;29438;50.664;10.098;2023-04-24T00:04:39;2.33;;;0.50;;
43807;SDS011;29438;50.664;10.098;2023-04-24T00:07:05;3.78;;;0.85;;
43807;SDS011;29438;50.664;10.098;2023-04-24T00:09:31;1.95;;;0.60;;
43807;SDS011;29438;50.664;10.098;2023-04-24T00:11:57;1.23;;;0.60;;
43807;SDS011;29438;50.664;10.098;2023-04-24T00:14:23;1.20;;;0.60;;
43807;SDS011;29438;50.664;10.098;2023-04-24T00:16:48;1.70;;;0.80;;
43807;SDS011;29438;50.664;10.098;2023-04-24T00:19:14;3.75;;;0.65;;
43807;SDS011;29438;50.664;10.098;2023-04-24T00:21:40;1.30;;;0.50;;
43807;SDS011;29438;50.664;10.098;2023-04-24T00:24:06;2.28;;;0.70;;
43807;SDS011;29438;50.664;10.098;2023-04-24T00:26:33;1.80;;;0.55;;
43807;SDS011;29438;50.664;10.098;2023-04-24T00:28:59;1.48;;;0.63;;
43807;SDS011;29438;50.664;10.098;2023-04-24T00:31:25;1.30;;;0.50;;
43807;SDS011;29438;50.664;10.098;2023-04-24T00:33:50;2.78;;;0.70;;
43807;SDS011;29438;50.664;10.098;2023-04-24T00:36:16;1.40;;;0.45;;
43807;SDS011;29438;50.664;10.098;2023-04-24T00:38:44;2.40;;;0.80;;
43807;SDS011;29438;50.664;10.098;2023-04-24T00:41:09;1.33;;;0.68;;
43807;SDS011;29438;50.664;10.098;2023-04-24T00:43:35;2.70;;;0.65;;
43807;SDS011;29438;50.664;10.098;2023-04-24T00:46:00;2.58;;;0.80;;
43807;SDS011;29438;50.664;10.098;2023-04-24T00:48:26;2.45;;;0.90;;
43807;SDS011;29438;50.664;10.098;2023-04-24T00:50:53;2.92;;;0.93;;
43807;SDS011;29438;50.664;10.098;2023-04-24T00:53:18;1.70;;;0.73;;
43807;SDS011;29438;50.664;10.098;2023-04-24T00:55:44;2.65;;;1.30;;
43807;SDS011;29438;50.664;10.098;2023-04-24T00:58:10;3.10;;;1.23;;
43807;SDS011;29438;50.664;10.098;2023-04-24T01:00:36;3.53;;;1.10;;
43807;SDS011;29438;50.664;10.098;2023-04-24T01:03:01;2.30;;;1.10;;
43807;SDS011;29438;50.664;10.098;2023-04-24T01:05:30;2.50;;;1.17;;
43807;SDS011;29438;50.664;10.098;2023-04-24T01:07:56;1.83;;;1.00;;
43807;SDS011;29438;50.664;10.098;2023-04-24T01:10:23;2.15;;;0.95;;
43807;SDS011;29438;50.664;10.098;2023-04-24T01:12:50;2.20;;;1.20;;
43807;SDS011;29438;50.664;10.098;2023-04-24T01:15:17;2.67;;;1.23;;
43807;SDS011;29438;50.664;10.098;2023-04-24T01:17:42;2.63;;;1.10;;
43807;SDS011;29438;50.664;10.098;2023-04-24T01:20:08;2.05;;;1.23;;
43807;SDS011;29438;50.664;10.098;2023-04-24T01:22:34;2.95;;;1.00;;
43807;SDS011;29438;50.664;10.098;2023-04-24T01:24:59;2.00;;;1.00;;
43807;SDS011;29438;50.664;10.098;2023-04-24T01:27:25;2.67;;;1.02;;
43807;SDS011;29438;50.664;10.098;2023-04-24T01:29:50;1.70;;;0.98;;
43807;SDS011;29438;50.664;10.098;2023-04-24T01:32:17;1.58;;;0.70;;
43807;SDS011;29438;50.664;10.098;2023-04-24T01:34:43;1.83;;;0.85;;
43807;SDS011;29438;50.664;10.098;2023-04-24T01:37:10;1.63;;;0.63;;
43807;SDS011;29438;50.664;10.098;2023-04-24T01:39:35;3.30;;;0.90;;
43807;SDS011;29438;50.664;10.098;2023-04-24T01:42:01;1.85;;;0.70;;
43807;SDS011;29438;50.664;10.098;2023-04-24T01:44:30;2.05;;;0.80;;
43807;SDS011;29438;50.664;10.098;2023-04-24T01:46:55;3.15;;;0.90;;
43807;SDS011;29438;50.664;10.098;2023-04-24T01:49:21;2.17;;;0.77;;
43807;SDS011;29438;50.664;10.098;2023-04-24T01:51:47;2.03;;;0.80;;
43807;SDS011;29438;50.664;10.098;2023-04-24T01:54:12;1.33;;;0.70;;
43807;SDS011;29438;50.664;10.098;2023-04-24T01:56:42;1.17;;;0.60;;
43807;SDS011;29438;50.664;10.098;2023-04-24T01:59:09;1.63;;;0.70;;
43807;SDS011;29438;50.664;10.098;2023-04-24T02:01:36;2.72;;;0.63;;
43807;SDS011;29438;50.664;10.098;2023-04-24T02:04:02;1.67;;;0.93;;
43807;SDS011;29438;50.664;10.098;2023-04-24T02:06:29;2.67;;;0.70;;
43807;SDS011;29438;50.664;10.098;2023-04-24T02:08:56;2.08;;;0.60;;
43807;SDS011;29438;50.664;10.098;2023-04-24T02:11:22;2.00;;;0.60;;
43807;SDS011;29438;50.664;10.098;2023-04-24T02:13:48;1.58;;;0.80;;
43807;SDS011;29438;50.664;10.098;2023-04-24T02:16:13;2.38;;;0.80;;
43807;SDS011;29438;50.664;10.098;2023-04-24T02:18:39;1.38;;;0.52;;
43807;SDS011;29438;50.664;10.098;2023-04-24T02:21:04;1.33;;;0.60;;
43807;SDS011;29438;50.664;10.098;2023-04-24T02:23:30;1.40;;;0.60;;
43807;SDS011;29438;50.664;10.098;2023-04-24T02:25:55;2.53;;;0.65;;
43807;SDS011;29438;50.664;10.098;2023-04-24T02:28:21;1.75;;;0.85;;
43807;SDS011;29438;50.664;10.098;2023-04-24T02:30:46;2.95;;;0.70;;
43807;SDS011;29438;50.664;10.098;2023-04-24T02:33:12;1.73;;;0.70;;
43807;SDS011;29438;50.664;10.098;2023-04-24T02:35:38;1.95;;;0.60;;
43807;SDS011;29438;50.664;10.098;2023-04-24T02:38:03;1.63;;;0.63;;
43807;SDS011;29438;50.664;10.098;2023-04-24T02:40:29;1.10;;;0.55;;
43807;SDS011;29438;50.664;10.098;2023-04-24T02:42:55;2.05;;;0.60;;
43807;SDS011;29438;50.664;10.098;2023-04-24T02:45:20;1.83;;;0.50;;
43807;SDS011;29438;50.664;10.098;2023-04-24T02:47:46;1.27;;;0.40;;
43807;SDS011;29438;50.664;10.098;2023-04-24T02:50:11;1.75;;;0.40;;
43807;SDS011;29438;50.664;10.098;2023-04-24T02:52:37;2.70;;;0.40;;
43807;SDS011;29438;50.664;10.098;2023-04-24T02:55:02;1.23;;;0.40;;
43807;SDS011;29438;50.664;10.098;2023-04-24T02:57:29;2.15;;;0.30;;
43807;SDS011;29438;50.664;10.098;2023-04-24T02:59:55;1.58;;;0.20;;
43807;SDS011;29438;50.664;10.098;2023-04-24T03:02:20;1.65;;;0.50;;
43807;SDS011;29438;50.664;10.098;2023-04-24T03:04:46;0.82;;;0.30;;
43807;SDS011;29438;50.664;10.098;2023-04-24T03:07:13;0.95;;;0.25;;
43807;SDS011;29438;50.664;10.098;2023-04-24T03:09:39;1.33;;;0.30;;
43807;SDS011;29438;50.664;10.098;2023-04-24T03:12:05;1.58;;;0.22;;
43807;SDS011;29438;50.664;10.098;2023-04-24T03:14:31;0.90;;;0.28;;
43807;SDS011;29438;50.664;10.098;2023-04-24T03:16:56;1.60;;;0.20;;
43807;SDS011;29438;50.664;10.098;2023-04-24T03:19:22;0.80;;;0.30;;
43807;SDS011;29438;50.664;10.098;2023-04-24T03:21:47;0.52;;;0.20;;
43807;SDS011;29438;50.664;10.098;2023-04-24T03:24:13;1.73;;;0.30;;
43807;SDS011;29438;50.664;10.098;2023-04-24T03:26:39;1.02;;;0.40;;
43807;SDS011;29438;50.664;10.098;2023-04-24T03:29:04;0.77;;;0.30;;
43807;SDS011;29438;50.664;10.098;2023-04-24T03:31:30;1.27;;;0.20;;
43807;SDS011;29438;50.664;10.098;2023-04-24T03:33:55;1.67;;;0.35;;
43807;SDS011;29438;50.664;10.098;2023-04-24T03:36:21;1.67;;;0.40;;
43807;SDS011;29438;50.664;10.098;2023-04-24T03:38:46;2.08;;;0.40;;
43807;SDS011;29438;50.664;10.098;2023-04-24T03:41:12;1.27;;;0.32;;
43807;SDS011;29438;50.664;10.098;2023-04-24T03:43:37;2.20;;;0.50;;
43807;SDS011;29438;50.664;10.098;2023-04-24T03:46:03;1.33;;;0.30;;
43807;SDS011;29438;50.664;10.098;2023-04-24T03:48:29;2.25;;;0.40;;
43807;SDS011;29438;50.664;10.098;2023-04-24T03:50:54;2.05;;;0.30;;
43807;SDS011;29438;50.664;10.098;2023-04-24T03:53:20;1.42;;;0.35;;
43807;SDS011;29438;50.664;10.098;2023-04-24T03:55:46;1.20;;;0.40;;
43807;SDS011;29438;50.664;10.098;2023-04-24T03:58:11;2.15;;;0.40;;
43807;SDS011;29438;50.664;10.098;2023-04-24T04:00:39;1.40;;;0.40;;
43807;SDS011;29438;50.664;10.098;2023-04-24T04:03:05;1.08;;;0.40;;
43807;SDS011;29438;50.664;10.098;2023-04-24T04:05:31;1.83;;;0.50;;
43807;SDS011;29438;50.664;10.098;2023-04-24T04:07:56;1.55;;;0.40;;
43807;SDS011;29438;50.664;10.098;2023-04-24T04:10:22;1.52;;;0.45;;
43807;SDS011;29438;50.664;10.098;2023-04-24T04:12:47;1.70;;;0.50;;
43807;SDS011;29438;50.664;10.098;2023-04-24T04:15:13;1.92;;;0.50;;
43807;SDS011;29438;50.664;10.098;2023-04-24T04:17:38;2.70;;;0.52;;
43807;SDS011;29438;50.664;10.098;2023-04-24T04:20:04;2.30;;;0.50;;
43807;SDS011;29438;50.664;10.098;2023-04-24T04:22:35;1.25;;;0.40;;
43807;SDS011;29438;50.664;10.098;2023-04-24T04:25:01;2.03;;;0.30;;
43807;SDS011;29438;50.664;10.098;2023-04-24T04:27:27;2.28;;;0.50;;
43807;SDS011;29438;50.664;10.098;2023-04-24T04:29:53;2.35;;;0.52;;
43807;SDS011;29438;50.664;10.098;2023-04-24T04:32:21;1.00;;;0.30;;
43807;SDS011;29438;50.664;10.098;2023-04-24T04:34:47;1.98;;;0.57;;
43807;SDS011;29438;50.664;10.098;2023-04-24T04:37:14;1.42;;;0.40;;
43807;SDS011;29438;50.664;10.098;2023-04-24T04:39:39;3.33;;;0.60;;
43807;SDS011;29438;50.664;10.098;2023-04-24T04:42:05;1.42;;;0.40;;
43807;SDS011;29438;50.664;10.098;2023-04-24T04:44:31;1.55;;;0.50;;
43807;SDS011;29438;50.664;10.098;2023-04-24T04:46:57;1.38;;;0.45;;
43807;SDS011;29438;50.664;10.098;2023-04-24T04:49:24;1.20;;;0.47;;
43807;SDS011;29438;50.664;10.098;2023-04-24T04:51:49;1.73;;;0.60;;
43807;SDS011;29438;50.664;10.098;2023-04-24T04:54:15;2.10;;;0.32;;
43807;SDS011;29438;50.664;10.098;2023-04-24T04:56:41;2.42;;;0.70;;
43807;SDS011;29438;50.664;10.098;2023-04-24T04:59:07;2.00;;;0.55;;
43807;SDS011;29438;50.664;10.098;2023-04-24T05:01:32;2.55;;;0.40;;
43807;SDS011;29438;50.664;10.098;2023-04-24T05:03:58;2.05;;;0.40;;
43807;SDS011;29438;50.664;10.098;2023-04-24T05:06:23;1.05;;;0.40;;
43807;SDS011;29438;50.664;10.098;2023-04-24T05:08:49;1.85;;;0.70;;
43807;SDS011;29438;50.664;10.098;2023-04-24T05:11:14;2.33;;;0.90;;
43807;SDS011;29438;50.664;10.098;2023-04-24T05:13:40;2.38;;;0.70;;
43807;SDS011;29438;50.664;10.098;2023-04-24T05:16:05;2.33;;;0.80;;
43807;SDS011;29438;50.664;10.098;2023-04-24T05:18:31;2.88;;;1.10;;
43807;SDS011;29438;50.664;10.098;2023-04-24T05:20:57;1.95;;;0.60;;
43807;SDS011;29438;50.664;10.098;2023-04-24T05:23:22;1.95;;;0.90;;
43807;SDS011;29438;50.664;10.098;2023-04-24T05:25:48;1.92;;;0.70;;
43807;SDS011;29438;50.664;10.098;2023-04-24T05:28:13;1.65;;;0.68;;
43807;SDS011;29438;50.664;10.098;2023-04-24T05:30:40;1.77;;;0.60;;
43807;SDS011;29438;50.664;10.098;2023-04-24T05:33:05;1.90;;;0.70;;
43807;SDS011;29438;50.664;10.098;2023-04-24T05:35:31;2.30;;;0.70;;
43807;SDS011;29438;50.664;10.098;2023-04-24T05:37:56;2.22;;;0.80;;
43807;SDS011;29438;50.664;10.098;2023-04-24T05:40:22;1.23;;;0.50;;
43807;SDS011;29438;50.664;10.098;2023-04-24T05:42:47;2.33;;;0.77;;
43807;SDS011;29438;50.664;10.098;2023-04-24T05:45:13;1.33;;;0.60;;
43807;SDS011;29438;50.664;10.098;2023-04-24T05:47:41;1.27;;;0.70;;
43807;SDS011;29438;50.664;10.098;2023-04-24T05:50:09;1.60;;;0.90;;
43807;SDS011;29438;50.664;10.098;2023-04-24T05:52:35;2.47;;;0.80;;
43807;SDS011;29438;50.664;10.098;2023-04-24T05:55:00;1.83;;;0.90;;
43807;SDS011;29438;50.664;10.098;2023-04-24T05:57:26;1.67;;;0.68;;
43807;SDS011;29438;50.664;10.098;2023-04-24T05:59:51;4.00;;;0.80;;
43807;SDS011;29438;50.664;10.098;2023-04-24T06:02:17;1.63;;;0.82;;
43807;SDS011;29438;50.664;10.098;2023-04-24T06:04:42;2.28;;;1.00;;
43807;SDS011;29438;50.664;10.098;2023-04-24T06:07:09;2.92;;;0.98;;
43807;SDS011;29438;50.664;10.098;2023-04-24T06:09:35;1.83;;;0.90;;
43807;SDS011;29438;50.664;10.098;2023-04-24T06:12:01;2.17;;;0.80;;
43807;SDS011;29438;50.664;10.098;2023-04-24T06:14:27;2.50;;;1.00;;
43807;SDS011;29438;50.664;10.098;2023-04-24T06:16:53;1.83;;;0.82;;
43807;SDS011;29438;50.664;10.098;2023-04-24T06:19:18;1.50;;;0.90;;
43807;SDS011;29438;50.664;10.098;2023-04-24T06:21:44;2.47;;;1.05;;
43807;SDS011;29438;50.664;10.098;2023-04-24T06:24:09;1.83;;;0.90;;
43807;SDS011;29438;50.664;10.098;2023-04-24T06:26:35;3.80;;;1.77;;
43807;SDS011;29438;50.664;10.098;2023-04-24T06:29:01;1.40;;;0.80;;
43807;SDS011;29438;50.664;10.098;2023-04-24T06:31:26;1.50;;;0.88;;
43807;SDS011;29438;50.664;10.098;2023-04-24T06:33:52;1.85;;;0.82;;
43807;SDS011;29438;50.664;10.098;2023-04-24T06:36:17;2.22;;;0.65;;
43807;SDS011;29438;50.664;10.098;2023-04-24T06:38:43;1.40;;;0.60;;
43807;SDS011;29438;50.664;10.098;2023-04-24T06:41:09;1.30;;;0.52;;
43807;SDS011;29438;50.664;10.098;2023-04-24T06:43:35;2.70;;;0.70;;
43807;SDS011;29438;50.664;10.098;2023-04-24T06:46:00;1.27;;;0.60;;
43807;SDS011;29438;50.664;10.098;2023-04-24T06:48:28;2.25;;;0.80;;
43807;SDS011;29438;50.664;10.098;2023-04-24T06:50:53;1.33;;;0.50;;
43807;SDS011;29438;50.664;10.098;2023-04-24T06:53:19;1.83;;;0.80;;
43807;SDS011;29438;50.664;10.098;2023-04-24T06:55:45;2.13;;;0.80;;
43807;SDS011;29438;50.664;10.098;2023-04-24T06:58:11;1.45;;;0.70;;
43807;SDS011;29438;50.664;10.098;2023-04-24T07:00:37;1.10;;;0.40;;
43807;SDS011;29438;50.664;10.098;2023-04-24T07:03:03;1.85;;;0.60;;
43807;SDS011;29438;50.664;10.098;2023-04-24T07:05:30;1.85;;;0.75;;
43807;SDS011;29438;50.664;10.098;2023-04-24T07:07:58;1.95;;;0.75;;
43807;SDS011;29438;50.664;10.098;2023-04-24T07:10:24;2.70;;;0.73;;
43807;SDS011;29438;50.664;10.098;2023-04-24T07:12:52;2.55;;;0.90;;
43807;SDS011;29438;50.664;10.098;2023-04-24T07:15:17;1.35;;;0.50;;
43807;SDS011;29438;50.664;10.098;2023-04-24T07:17:43;2.88;;;0.90;;
43807;SDS011;29438;50.664;10.098;2023-04-24T07:20:09;2.03;;;0.70;;
43807;SDS011;29438;50.664;10.098;2023-04-24T07:22:35;1.20;;;0.63;;
43807;SDS011;29438;50.664;10.098;2023-04-24T07:25:02;1.80;;;0.80;;
43807;SDS011;29438;50.664;10.098;2023-04-24T07:27:27;1.40;;;0.85;;
43807;SDS011;29438;50.664;10.098;2023-04-24T07:29:53;1.63;;;0.60;;
43807;SDS011;29438;50.664;10.098;2023-04-24T07:32:18;1.70;;;0.88;;
43807;SDS011;29438;50.664;10.098;2023-04-24T07:34:44;2.33;;;0.68;;
43807;SDS011;29438;50.664;10.098;2023-04-24T07:37:10;1.33;;;0.60;;
43807;SDS011;29438;50.664;10.098;2023-04-24T07:39:36;2.03;;;0.68;;
43807;SDS011;29438;50.664;10.098;2023-04-24T07:42:01;1.20;;;0.60;;
43807;SDS011;29438;50.664;10.098;2023-04-24T07:44:27;2.25;;;0.60;;
43807;SDS011;29438;50.664;10.098;2023-04-24T07:46:53;2.17;;;0.60;;
43807;SDS011;29438;50.664;10.098;2023-04-24T07:49:19;1.85;;;0.63;;
43807;SDS011;29438;50.664;10.098;2023-04-24T07:51:45;2.00;;;0.70;;
43807;SDS011;29438;50.664;10.098;2023-04-24T07:54:10;1.88;;;0.63;;
43807;SDS011;29438;50.664;10.098;2023-04-24T07:56:36;2.03;;;0.80;;
43807;SDS011;29438;50.664;10.098;2023-04-24T07:59:03;3.13;;;0.95;;
43807;SDS011;29438;50.664;10.098;2023-04-24T08:01:29;1.50;;;0.70;;
43807;SDS011;29438;50.664;10.098;2023-04-24T08:03:55;4.32;;;1.08;;
43807;SDS011;29438;50.664;10.098;2023-04-24T08:06:21;2.20;;;0.90;;
43807;SDS011;29438;50.664;10.098;2023-04-24T08:08:47;2.00;;;1.08;;
43807;SDS011;29438;50.664;10.098;2023-04-24T08:11:12;3.00;;;0.90;;
43807;SDS011;29438;50.664;10.098;2023-04-24T08:13:38;2.65;;;0.95;;
43807;SDS011;29438;50.664;10.098;2023-04-24T08:16:03;1.73;;;0.98;;
43807;SDS011;29438;50.664;10.098;2023-04-24T08:18:29;1.77;;;0.80;;
43807;SDS011;29438;50.664;10.098;2023-04-24T08:20:55;1.85;;;0.80;;
43807;SDS011;29438;50.664;10.098;2023-04-24T08:23:21;2.08;;;0.80;;
43807;SDS011;29438;50.664;10.098;2023-04-24T08:25:47;1.85;;;0.90;;
43807;SDS011;29438;50.664;10.098;2023-04-24T08:28:13;1.50;;;0.80;;
43807;SDS011;29438;50.664;10.098;2023-04-24T08:30:44;1.80;;;0.90;;
43807;SDS011;29438;50.664;10.098;2023-04-24T08:33:11;4.20;;;1.60;;
43807;SDS011;29438;50.664;10.098;2023-04-24T08:35:36;1.92;;;1.10;;
43807;SDS011;29438;50.664;10.098;2023-04-24T08:38:02;10.18;;;4.05;;
43807;SDS011;29438;50.664;10.098;2023-04-24T08:40:27;2.63;;;1.40;;
43807;SDS011;29438;50.664;10.098;2023-04-24T08:42:56;2.47;;;1.30;;
43807;SDS011;29438;50.664;10.098;2023-04-24T08:45:24;3.22;;;1.63;;
43807;SDS011;29438;50.664;10.098;2023-04-24T08:47:50;2.42;;;1.20;;
43807;SDS011;29438;50.664;10.098;2023-04-24T08:50:18;3.20;;;1.77;;
43807;SDS011;29438;50.664;10.098;2023-04-24T08:52:44;3.08;;;1.60;;
43807;SDS011;29438;50.664;10.098;2023-04-24T08:55:09;3.40;;;1.50;;
43807;SDS011;29438;50.664;10.098;2023-04-24T08:57:35;3.20;;;1.70;;
43807;SDS011;29438;50.664;10.098;2023-04-24T09:00:03;3.28;;;1.80;;
43807;SDS011;29438;50.664;10.098;2023-04-24T09:02:29;3.00;;;1.60;;
43807;SDS011;29438;50.664;10.098;2023-04-24T09:04:56;3.15;;;1.80;;
43807;SDS011;29438;50.664;10.098;2023-04-24T09:07:24;3.05;;;1.90;;
43807;SDS011;29438;50.664;10.098;2023-04-24T09:09:51;5.30;;;2.30;;
43807;SDS011;29438;50.664;10.098;2023-04-24T09:12:17;4.80;;;2.15;;
43807;SDS011;29438;50.664;10.098;2023-04-24T09:14:44;6.18;;;3.42;;
43807;SDS011;29438;50.664;10.098;2023-04-24T09:17:10;3.05;;;1.75;;
43807;SDS011;29438;50.664;10.098;2023-04-24T09:19:36;3.25;;;2.20;;
43807;SDS011;29438;50.664;10.098;2023-04-24T09:22:05;3.08;;;1.88;;
43807;SDS011;29438;50.664;10.098;2023-04-24T09:24:31;3.97;;;2.00;;
43807;SDS011;29438;50.664;10.098;2023-04-24T09:26:57;3.10;;;1.83;;
43807;SDS011;29438;50.664;10.098;2023-04-24T09:29:23;3.95;;;2.15;;
43807;SDS011;29438;50.664;10.098;2023-04-24T09:31:49;3.67;;;2.10;;
43807;SDS011;29438;50.664;10.098;2023-04-24T09:34:18;3.13;;;1.73;;
43807;SDS011;29438;50.664;10.098;2023-04-24T09:36:50;3.85;;;2.35;;
43807;SDS011;29438;50.664;10.098;2023-04-24T09:39:16;3.63;;;2.00;;
43807;SDS011;29438;50.664;10.098;2023-04-24T09:44:20;3.65;;;2.50;;
43807;SDS011;29438;50.664;10.098;2023-04-24T09:46:50;6.28;;;2.45;;
43807;SDS011;29438;50.664;10.098;2023-04-24T09:49:22;3.67;;;2.40;;
43807;SDS011;29438;50.664;10.098;2023-04-24T09:51:49;3.65;;;1.98;;
43807;SDS011;29438;50.664;10.098;2023-04-24T09:54:20;3.42;;;2.08;;
43807;SDS011;29438;50.664;10.098;2023-04-24T09:56:47;5.35;;;2.60;;
43807;SDS011;29438;50.664;10.098;2023-04-24T09:59:14;2.97;;;1.98;;
43807;SDS011;29438;50.664;10.098;2023-04-24T10:01:41;4.60;;;2.65;;
43807;SDS011;29438;50.664;10.098;2023-04-24T10:04:20;3.72;;;2.25;;
43807;SDS011;29438;50.664;10.098;2023-04-24T10:06:48;4.03;;;1.92;;
43807;SDS011;29438;50.664;10.098;2023-04-24T10:09:14;2.78;;;1.67;;
43807;SDS011;29438;50.664;10.098;2023-04-24T10:11:41;2.40;;;1.50;;
43807;SDS011;29438;50.664;10.098;2023-04-24T10:14:12;4.28;;;2.42;;
43807;SDS011;29438;50.664;10.098;2023-04-24T10:16:40;2.33;;;1.30;;
43807;SDS011;29438;50.664;10.098;2023-04-24T10:19:06;3.42;;;1.38;;
43807;SDS011;29438;50.664;10.098;2023-04-24T10:21:32;8.18;;;3.05;;
43807;SDS011;29438;50.664;10.098;2023-04-24T10:23:59;5.60;;;2.70;;
43807;SDS011;29438;50.664;10.098;2023-04-24T10:26:28;8.60;;;3.63;;
43807;SDS011;29438;50.664;10.098;2023-04-24T10:28:54;12.45;;;4.75;;
43807;SDS011;29438;50.664;10.098;2023-04-24T10:31:22;4.85;;;2.00;;
43807;SDS011;29438;50.664;10.098;2023-04-24T10:33:47;5.68;;;2.58;;
43807;SDS011;29438;50.664;10.098;2023-04-24T10:36:16;6.40;;;3.00;;
43807;SDS011;29438;50.664;10.098;2023-04-24T10:38:42;11.00;;;4.03;;
43807;SDS011;29438;50.664;10.098;2023-04-24T10:41:11;3.33;;;1.75;;
43807;SDS011;29438;50.664;10.098;2023-04-24T10:43:48;8.70;;;4.40;;
43807;SDS011;29438;50.664;10.098;2023-04-24T10:46:29;4.00;;;2.40;;
43807;SDS011;29438;50.664;10.098;2023-04-24T10:48:55;3.15;;;1.52;;
43807;SDS011;29438;50.664;10.098;2023-04-24T10:51:22;3.10;;;1.42;;
43807;SDS011;29438;50.664;10.098;2023-04-24T10:53:49;3.00;;;1.50;;
43807;SDS011;29438;50.664;10.098;2023-04-24T10:56:16;2.80;;;1.38;;
43807;SDS011;29438;50.664;10.098;2023-04-24T10:58:43;2.33;;;1.40;;
43807;SDS011;29438;50.664;10.098;2023-04-24T11:01:23;2.70;;;1.60;;
43807;SDS011;29438;50.664;10.098;2023-04-24T11:03:57;3.20;;;1.97;;
43807;SDS011;29438;50.664;10.098;2023-04-24T11:06:29;2.63;;;1.30;;
43807;SDS011;29438;50.664;10.098;2023-04-24T11:09:06;3.20;;;1.90;;
43807;SDS011;29438;50.664;10.098;2023-04-24T11:11:33;3.45;;;1.70;;
43807;SDS011;29438;50.664;10.098;2023-04-24T11:14:01;3.63;;;2.08;;
43807;SDS011;29438;50.664;10.098;2023-04-24T11:16:30;2.60;;;1.60;;
43807;SDS011;29438;50.664;10.098;2023-04-24T11:19:06;2.97;;;1.50;;
43807;SDS011;29438;50.664;10.098;2023-04-24T11:27:13;2.63;;;1.30;;
43807;SDS011;29438;50.664;10.098;2023-04-24T11:29:46;2.38;;;1.25;;
43807;SDS011;29438;50.664;10.098;2023-04-24T11:34:59;2.70;;;1.38;;
43807;SDS011;29438;50.664;10.098;2023-04-24T11:37:33;2.15;;;1.17;;
43807;SDS011;29438;50.664;10.098;2023-04-24T11:40:01;2.55;;;1.30;;
43807;SDS011;29438;50.664;10.098;2023-04-24T11:42:27;3.92;;;1.90;;
43807;SDS011;29438;50.664;10.098;2023-04-24T11:44:53;2.47;;;1.40;;
43807;SDS011;29438;50.664;10.098;2023-04-24T11:47:30;2.30;;;1.10;;
43807;SDS011;29438;50.664;10.098;2023-04-24T11:49:58;3.42;;;1.20;;
43807;SDS011;29438;50.664;10.098;2023-04-24T11:52:24;2.15;;;1.15;;
43807;SDS011;29438;50.664;10.098;2023-04-24T11:54:50;4.45;;;2.20;;
43807;SDS011;29438;50.664;10.098;2023-04-24T11:57:18;1.55;;;0.90;;
43807;SDS011;29438;50.664;10.098;2023-04-24T11:59:45;2.55;;;1.25;;
43807;SDS011;29438;50.664;10.098;2023-04-24T12:02:19;7.55;;;3.00;;
43807;SDS011;29438;50.664;10.098;2023-04-24T12:04:46;5.10;;;2.38;;
43807;SDS011;29438;50.664;10.098;2023-04-24T12:07:11;14.38;;;4.97;;
43807;SDS011;29438;50.664;10.098;2023-04-24T12:09:56;5.85;;;2.10;;
43807;SDS011;29438;50.664;10.098;2023-04-24T12:12:24;6.57;;;2.38;;
43807;SDS011;29438;50.664;10.098;2023-04-24T12:14:57;4.57;;;1.70;;
43807;SDS011;29438;50.664;10.098;2023-04-24T12:17:27;6.15;;;2.72;;
43807;SDS011;29438;50.664;10.098;2023-04-24T12:20:05;3.92;;;1.65;;
43807;SDS011;29438;50.664;10.098;2023-04-24T12:22:44;6.32;;;2.50;;
43807;SDS011;29438;50.664;10.098;2023-04-24T12:25:11;2.50;;;1.00;;
43807;SDS011;29438;50.664;10.098;2023-04-24T12:27:37;4.30;;;1.63;;
43807;SDS011;29438;50.664;10.098;2023-04-24T12:30:03;1.60;;;0.70;;
43807;SDS011;29438;50.664;10.098;2023-04-24T12:32:30;7.00;;;2.45;;
43807;SDS011;29438;50.664;10.098;2023-04-24T12:34:56;2.03;;;0.57;;
43807;SDS011;29438;50.664;10.098;2023-04-24T12:37:23;1.75;;;0.68;;
43807;SDS011;29438;50.664;10.098;2023-04-24T12:40:09;2.35;;;0.35;;
43807;SDS011;29438;50.664;10.098;2023-04-24T12:42:36;2.00;;;0.60;;
43807;SDS011;29438;50.664;10.098;2023-04-24T12:45:07;1.58;;;0.55;;
43807;SDS011;29438;50.664;10.098;2023-04-24T12:47:33;2.03;;;0.88;;
43807;SDS011;29438;50.664;10.098;2023-04-24T12:50:00;2.15;;;0.82;;
43807;SDS011;29438;50.664;10.098;2023-04-24T12:52:27;1.92;;;0.60;;
43807;SDS011;29438;50.664;10.098;2023-04-24T12:54:54;2.20;;;1.10;;
43807;SDS011;29438;50.664;10.098;2023-04-24T12:57:23;1.58;;;0.52;;
43807;SDS011;29438;50.664;10.098;2023-04-24T12:59:50;1.83;;;0.60;;
43807;SDS011;29438;50.664;10.098;2023-04-24T13:02:15;1.30;;;0.43;;
43807;SDS011;29438;50.664;10.098;2023-04-24T13:04:43;1.30;;;0.47;;
43807;SDS011;29438;50.664;10.098;2023-04-24T13:07:11;0.88;;;0.20;;
43807;SDS011;29438;50.664;10.098;2023-04-24T13:09:37;0.85;;;0.30;;
43807;SDS011;29438;50.664;10.098;2023-04-24T13:12:03;0.90;;;0.30;;
43807;SDS011;29438;50.664;10.098;2023-04-24T13:14:30;1.90;;;1.00;;
43807;SDS011;29438;50.664;10.098;2023-04-24T13:16:59;1.63;;;0.60;;
43807;SDS011;29438;50.664;10.098;2023-04-24T13:19:25;1.33;;;0.50;;
43807;SDS011;29438;50.664;10.098;2023-04-24T13:21:51;2.50;;;0.50;;
43807;SDS011;29438;50.664;10.098;2023-04-24T13:24:17;0.90;;;0.40;;
43807;SDS011;29438;50.664;10.098;2023-04-24T13:26:43;1.23;;;0.65;;
43807;SDS011;29438;50.664;10.098;2023-04-24T13:29:08;1.75;;;0.80;;
43807;SDS011;29438;50.664;10.098;2023-04-24T13:31:34;1.00;;;0.30;;
43807;SDS011;29438;50.664;10.098;2023-04-24T13:34:00;1.92;;;0.65;;
43807;SDS011;29438;50.664;10.098;2023-04-24T13:36:26;1.10;;;0.50;;
43807;SDS011;29438;50.664;10.098;2023-04-24T13:38:51;1.08;;;0.43;;
43807;SDS011;29438;50.664;10.098;2023-04-24T13:41:17;1.70;;;0.70;;
43807;SDS011;29438;50.664;10.098;2023-04-24T13:43:42;1.55;;;0.70;;
43807;SDS011;29438;50.664;10.098;2023-04-24T13:46:08;1.00;;;0.40;;
43807;SDS011;29438;50.664;10.098;2023-04-24T13:48:33;1.10;;;0.38;;
43807;SDS011;29438;50.664;10.098;2023-04-24T13:50:59;1.35;;;0.73;;
43807;SDS011;29438;50.664;10.098;2023-04-24T13:53:25;0.93;;;0.38;;
43807;SDS011;29438;50.664;10.098;2023-04-24T13:55:50;1.58;;;1.02;;
43807;SDS011;29438;50.664;10.098;2023-04-24T13:58:16;2.70;;;1.92;;
43807;SDS011;29438;50.664;10.098;2023-04-24T14:00:41;0.70;;;0.40;;
43807;SDS011;29438;50.664;10.098;2023-04-24T14:03:07;0.98;;;0.20;;
43807;SDS011;29438;50.664;10.098;2023-04-24T14:05:32;0.77;;;0.40;;
43807;SDS011;29438;50.664;10.098;2023-04-24T14:07:58;0.75;;;0.25;;
43807;SDS011;29438;50.664;10.098;2023-04-24T14:10:23;1.08;;;0.30;;
43807;SDS011;29438;50.664;10.098;2023-04-24T14:12:49;4.63;;;2.63;;
43807;SDS011;29438;50.664;10.098;2023-04-24T14:15:15;5.30;;;2.03;;
43807;SDS011;29438;50.664;10.098;2023-04-24T14:17:41;2.15;;;0.77;;
43807;SDS011;29438;50.664;10.098;2023-04-24T14:20:07;3.17;;;2.00;;
43807;SDS011;29438;50.664;10.098;2023-04-24T14:25:29;2.03;;;0.68;;
43807;SDS011;29438;50.664;10.098;2023-04-24T14:27:55;5.00;;;3.10;;
43807;SDS011;29438;50.664;10.098;2023-04-24T14:30:20;2.00;;;0.68;;
43807;SDS011;29438;50.664;10.098;2023-04-24T14:32:46;3.03;;;1.80;;
43807;SDS011;29438;50.664;10.098;2023-04-24T14:35:11;1.63;;;0.70;;
43807;SDS011;29438;50.664;10.098;2023-04-24T14:37:37;3.67;;;2.08;;
43807;SDS011;29438;50.664;10.098;2023-04-24T14:40:06;2.60;;;1.40;;
43807;SDS011;29438;50.664;10.098;2023-04-24T14:42:33;2.85;;;1.17;;
43807;SDS011;29438;50.664;10.098;2023-04-24T14:44:58;3.63;;;2.25;;